sensor_id;sensor_type;location;lat;lon;timestamp;P1;durP1;ratioP1;P2;durP2;ratioP2
40847;SDS011;26570;50.962;5.340;2023-03-01T01:01:30;14.27;;;7.93;;
40847;SDS011;26570;50.962;5.340;2023-03-01T01:04:16;15.77;;;8.23;;
40847;SDS011;26570;50.962;5.340;2023-03-01T01:07:02;16.97;;;9.37;;
40847;SDS011;26570;50.962;5.340;2023-03-01T01:09:47;22.33;;;10.00;;
40847;SDS011;26570;50.962;5.340;2023-03-01T01:12:33;19.77;;;8.87;;
40847;SDS011;26570;50.962;5.340;2023-03-01T01:15:40;16.40;;;8.43;;
40847;SDS011;26570;50.962;5.340;2023-03-01T01:18:26;21.30;;;9.43;;
40847;SDS011;26570;50.962;5.340;2023-03-01T01:21:13;18.67;;;9.47;;
40847;SDS011;26570;50.962;5.340;2023-03-01T01:24:02;31.63;;;11.70;;
40847;SDS011;26570;50.962;5.340;2023-03-01T01:26:49;20.90;;;10.70;;
40847;SDS011;26570;50.962;5.340;2023-03-01T01:29:35;18.80;;;10.27;;
40847;SDS011;26570;50.962;5.340;2023-03-01T01:32:22;22.23;;;9.23;;
40847;SDS011;26570;50.962;5.340;2023-03-01T01:35:08;16.73;;;8.67;;
40847;SDS011;26570;50.962;5.340;2023-03-01T01:37:54;12.83;;;8.23;;
40847;SDS011;26570;50.962;5.340;2023-03-01T01:40:46;16.43;;;8.70;;
40847;SDS011;26570;50.962;5.340;2023-03-01T01:43:38;17.70;;;10.23;;
40847;SDS011;26570;50.962;5.340;2023-03-01T01:46:37;19.25;;;9.63;;
40847;SDS011;26570;50.962;5.340;2023-03-01T01:49:47;13.63;;;8.50;;
40847;SDS011;26570;50.962;5.340;2023-03-01T01:52:36;13.80;;;8.37;;
40847;SDS011;26570;50.962;5.340;2023-03-01T01:55:23;14.67;;;9.10;;
40847;SDS011;26570;50.962;5.340;2023-03-01T01:58:12;15.30;;;8.13;;
40847;SDS011;26570;50.962;5.340;2023-03-01T02:01:02;17.93;;;9.70;;
40847;SDS011;26570;50.962;5.340;2023-03-01T02:04:12;14.30;;;8.60;;
40847;SDS011;26570;50.962;5.340;2023-03-01T02:07:00;12.83;;;8.73;;
40847;SDS011;26570;50.962;5.340;2023-03-01T02:09:49;23.10;;;10.00;;
40847;SDS011;26570;50.962;5.340;2023-03-01T02:12:36;21.65;;;10.95;;
40847;SDS011;26570;50.962;5.340;2023-03-01T02:15:24;17.10;;;9.83;;
40847;SDS011;26570;50.962;5.340;2023-03-01T02:18:12;17.30;;;9.93;;
40847;SDS011;26570;50.962;5.340;2023-03-01T02:27:45;15.50;;;10.37;;
40847;SDS011;26570;50.962;5.340;2023-03-01T02:30:56;17.23;;;10.40;;
40847;SDS011;26570;50.962;5.340;2023-03-01T02:34:01;14.60;;;10.00;;
40847;SDS011;26570;50.962;5.340;2023-03-01T02:37:12;20.55;;;10.30;;
40847;SDS011;26570;50.962;5.340;2023-03-01T02:40:04;17.30;;;11.10;;
40847;SDS011;26570;50.962;5.340;2023-03-01T02:42:56;22.58;;;10.43;;
40847;SDS011;26570;50.962;5.340;2023-03-01T02:45:47;17.57;;;10.27;;
40847;SDS011;26570;50.962;5.340;2023-03-01T02:48:56;13.45;;;8.70;;
40847;SDS011;26570;50.962;5.340;2023-03-01T02:54:58;19.00;;;11.07;;
40847;SDS011;26570;50.962;5.340;2023-03-01T02:57:54;18.70;;;10.48;;
40847;SDS011;26570;50.962;5.340;2023-03-01T03:00:42;19.67;;;10.53;;
40847;SDS011;26570;50.962;5.340;2023-03-01T03:03:33;16.38;;;10.15;;
40847;SDS011;26570;50.962;5.340;2023-03-01T03:06:18;13.73;;;10.48;;
40847;SDS011;26570;50.962;5.340;2023-03-01T03:09:04;18.38;;;10.55;;
40847;SDS011;26570;50.962;5.340;2023-03-01T03:11:50;19.15;;;10.48;;
40847;SDS011;26570;50.962;5.340;2023-03-01T03:14:35;20.33;;;10.85;;
40847;SDS011;26570;50.962;5.340;2023-03-01T03:17:21;18.07;;;11.07;;
40847;SDS011;26570;50.962;5.340;2023-03-01T03:20:07;15.27;;;10.27;;
40847;SDS011;26570;50.962;5.340;2023-03-01T03:22:57;23.73;;;11.00;;
40847;SDS011;26570;50.962;5.340;2023-03-01T03:25:42;17.63;;;11.20;;
40847;SDS011;26570;50.962;5.340;2023-03-01T03:28:28;17.83;;;11.15;;
40847;SDS011;26570;50.962;5.340;2023-03-01T03:31:14;19.90;;;12.40;;
40847;SDS011;26570;50.962;5.340;2023-03-01T03:33:59;15.80;;;10.77;;
40847;SDS011;26570;50.962;5.340;2023-03-01T03:36:45;17.83;;;11.75;;
40847;SDS011;26570;50.962;5.340;2023-03-01T03:39:31;18.63;;;11.93;;
40847;SDS011;26570;50.962;5.340;2023-03-01T03:42:20;21.10;;;11.95;;
40847;SDS011;26570;50.962;5.340;2023-03-01T03:45:07;18.70;;;11.52;;
40847;SDS011;26570;50.962;5.340;2023-03-01T03:47:53;18.38;;;11.13;;
40847;SDS011;26570;50.962;5.340;2023-03-01T03:50:39;18.45;;;11.80;;
40847;SDS011;26570;50.962;5.340;2023-03-01T03:53:47;16.25;;;11.40;;
40847;SDS011;26570;50.962;5.340;2023-03-01T03:56:33;19.80;;;12.05;;
40847;SDS011;26570;50.962;5.340;2023-03-01T03:59:18;16.98;;;11.73;;
40847;SDS011;26570;50.962;5.340;2023-03-01T04:02:04;20.83;;;11.90;;
40847;SDS011;26570;50.962;5.340;2023-03-01T04:04:52;19.40;;;10.93;;
40847;SDS011;26570;50.962;5.340;2023-03-01T04:07:38;21.40;;;12.00;;
40847;SDS011;26570;50.962;5.340;2023-03-01T04:10:23;19.48;;;11.73;;
40847;SDS011;26570;50.962;5.340;2023-03-01T04:13:31;23.05;;;12.38;;
40847;SDS011;26570;50.962;5.340;2023-03-01T04:16:17;21.48;;;12.63;;
40847;SDS011;26570;50.962;5.340;2023-03-01T04:19:02;19.65;;;11.68;;
40847;SDS011;26570;50.962;5.340;2023-03-01T04:21:50;21.75;;;12.05;;
40847;SDS011;26570;50.962;5.340;2023-03-01T04:24:58;20.42;;;11.93;;
40847;SDS011;26570;50.962;5.340;2023-03-01T04:27:51;22.77;;;12.57;;
40847;SDS011;26570;50.962;5.340;2023-03-01T04:30:38;21.92;;;12.73;;
40847;SDS011;26570;50.962;5.340;2023-03-01T04:33:24;17.63;;;11.75;;
40847;SDS011;26570;50.962;5.340;2023-03-01T04:36:11;20.50;;;11.65;;
40847;SDS011;26570;50.962;5.340;2023-03-01T04:38:57;23.35;;;12.38;;
40847;SDS011;26570;50.962;5.340;2023-03-01T04:41:43;22.05;;;12.48;;
40847;SDS011;26570;50.962;5.340;2023-03-01T04:44:29;20.73;;;12.85;;
40847;SDS011;26570;50.962;5.340;2023-03-01T04:47:14;21.17;;;12.60;;
40847;SDS011;26570;50.962;5.340;2023-03-01T04:50:27;24.40;;;12.43;;
40847;SDS011;26570;50.962;5.340;2023-03-01T04:53:12;19.77;;;12.32;;
40847;SDS011;26570;50.962;5.340;2023-03-01T04:55:58;20.27;;;12.38;;
40847;SDS011;26570;50.962;5.340;2023-03-01T04:58:43;24.10;;;12.45;;
40847;SDS011;26570;50.962;5.340;2023-03-01T05:01:29;20.25;;;12.60;;
40847;SDS011;26570;50.962;5.340;2023-03-01T05:04:14;25.20;;;13.55;;
40847;SDS011;26570;50.962;5.340;2023-03-01T05:06:59;22.40;;;12.90;;
40847;SDS011;26570;50.962;5.340;2023-03-01T05:09:48;18.38;;;12.02;;
40847;SDS011;26570;50.962;5.340;2023-03-01T05:12:34;21.63;;;11.68;;
40847;SDS011;26570;50.962;5.340;2023-03-01T05:15:21;24.70;;;13.95;;
40847;SDS011;26570;50.962;5.340;2023-03-01T05:18:09;21.35;;;12.35;;
40847;SDS011;26570;50.962;5.340;2023-03-01T05:20:56;22.65;;;12.27;;
40847;SDS011;26570;50.962;5.340;2023-03-01T05:23:52;26.13;;;12.82;;
40847;SDS011;26570;50.962;5.340;2023-03-01T05:27:00;20.98;;;12.90;;
40847;SDS011;26570;50.962;5.340;2023-03-01T05:29:47;24.73;;;13.43;;
40847;SDS011;26570;50.962;5.340;2023-03-01T05:32:32;24.85;;;13.32;;
40847;SDS011;26570;50.962;5.340;2023-03-01T05:35:18;23.08;;;13.88;;
40847;SDS011;26570;50.962;5.340;2023-03-01T05:38:03;25.33;;;12.88;;
40847;SDS011;26570;50.962;5.340;2023-03-01T05:40:49;23.40;;;13.15;;
40847;SDS011;26570;50.962;5.340;2023-03-01T05:43:34;21.50;;;12.10;;
40847;SDS011;26570;50.962;5.340;2023-03-01T05:46:20;17.65;;;11.82;;
40847;SDS011;26570;50.962;5.340;2023-03-01T05:49:05;26.48;;;13.95;;
40847;SDS011;26570;50.962;5.340;2023-03-01T05:51:51;21.17;;;12.15;;
40847;SDS011;26570;50.962;5.340;2023-03-01T05:54:37;22.75;;;13.32;;
40847;SDS011;26570;50.962;5.340;2023-03-01T05:57:22;20.23;;;12.15;;
40847;SDS011;26570;50.962;5.340;2023-03-01T06:00:09;24.48;;;13.48;;
40847;SDS011;26570;50.962;5.340;2023-03-01T06:03:03;24.42;;;13.40;;
40847;SDS011;26570;50.962;5.340;2023-03-01T06:05:49;24.55;;;13.68;;
40847;SDS011;26570;50.962;5.340;2023-03-01T06:08:35;26.92;;;15.05;;
40847;SDS011;26570;50.962;5.340;2023-03-01T06:11:20;22.90;;;12.82;;
40847;SDS011;26570;50.962;5.340;2023-03-01T06:14:07;24.98;;;14.05;;
40847;SDS011;26570;50.962;5.340;2023-03-01T06:16:59;24.45;;;13.75;;
40847;SDS011;26570;50.962;5.340;2023-03-01T06:19:46;25.45;;;13.85;;
40847;SDS011;26570;50.962;5.340;2023-03-01T06:22:38;29.38;;;14.95;;
40847;SDS011;26570;50.962;5.340;2023-03-01T06:25:24;25.42;;;12.82;;
40847;SDS011;26570;50.962;5.340;2023-03-01T06:28:11;33.05;;;14.30;;
40847;SDS011;26570;50.962;5.340;2023-03-01T06:30:56;26.85;;;15.35;;
40847;SDS011;26570;50.962;5.340;2023-03-01T06:33:42;23.77;;;13.60;;
40847;SDS011;26570;50.962;5.340;2023-03-01T06:36:28;26.25;;;14.00;;
40847;SDS011;26570;50.962;5.340;2023-03-01T06:39:14;28.48;;;14.82;;
40847;SDS011;26570;50.962;5.340;2023-03-01T06:42:24;21.83;;;13.95;;
40847;SDS011;26570;50.962;5.340;2023-03-01T06:45:10;24.02;;;13.20;;
40847;SDS011;26570;50.962;5.340;2023-03-01T06:48:05;23.05;;;13.30;;
40847;SDS011;26570;50.962;5.340;2023-03-01T06:50:54;26.02;;;13.65;;
40847;SDS011;26570;50.962;5.340;2023-03-01T06:53:42;27.55;;;14.80;;
40847;SDS011;26570;50.962;5.340;2023-03-01T06:56:28;22.48;;;14.50;;
40847;SDS011;26570;50.962;5.340;2023-03-01T06:59:13;24.10;;;13.93;;
40847;SDS011;26570;50.962;5.340;2023-03-01T07:01:58;27.20;;;14.43;;
40847;SDS011;26570;50.962;5.340;2023-03-01T07:04:44;26.42;;;14.55;;
40847;SDS011;26570;50.962;5.340;2023-03-01T07:07:29;27.13;;;14.77;;
40847;SDS011;26570;50.962;5.340;2023-03-01T07:10:15;26.95;;;15.52;;
40847;SDS011;26570;50.962;5.340;2023-03-01T07:13:00;28.80;;;14.55;;
40847;SDS011;26570;50.962;5.340;2023-03-01T07:15:45;24.60;;;13.10;;
40847;SDS011;26570;50.962;5.340;2023-03-01T07:18:30;24.40;;;14.30;;
40847;SDS011;26570;50.962;5.340;2023-03-01T07:21:16;18.70;;;10.90;;
40847;SDS011;26570;50.962;5.340;2023-03-01T07:24:01;20.80;;;10.90;;
40847;SDS011;26570;50.962;5.340;2023-03-01T07:26:50;17.03;;;10.10;;
40847;SDS011;26570;50.962;5.340;2023-03-01T07:29:35;18.23;;;10.97;;
40847;SDS011;26570;50.962;5.340;2023-03-01T07:32:42;17.37;;;9.30;;
40847;SDS011;26570;50.962;5.340;2023-03-01T07:35:29;17.37;;;10.17;;
40847;SDS011;26570;50.962;5.340;2023-03-01T07:38:14;15.53;;;9.43;;
40847;SDS011;26570;50.962;5.340;2023-03-01T07:41:00;14.73;;;9.37;;
40847;SDS011;26570;50.962;5.340;2023-03-01T07:43:46;15.70;;;8.50;;
40847;SDS011;26570;50.962;5.340;2023-03-01T07:46:31;13.10;;;8.63;;
40847;SDS011;26570;50.962;5.340;2023-03-01T07:49:15;15.80;;;9.00;;
40847;SDS011;26570;50.962;5.340;2023-03-01T07:52:00;16.17;;;7.87;;
40847;SDS011;26570;50.962;5.340;2023-03-01T07:54:45;15.13;;;8.87;;
40847;SDS011;26570;50.962;5.340;2023-03-01T07:57:30;14.23;;;8.87;;
40847;SDS011;26570;50.962;5.340;2023-03-01T08:00:18;17.23;;;7.80;;
40847;SDS011;26570;50.962;5.340;2023-03-01T08:03:04;13.90;;;8.07;;
40847;SDS011;26570;50.962;5.340;2023-03-01T08:05:49;12.33;;;8.13;;
40847;SDS011;26570;50.962;5.340;2023-03-01T08:08:34;15.10;;;8.17;;
40847;SDS011;26570;50.962;5.340;2023-03-01T08:11:19;14.30;;;7.60;;
40847;SDS011;26570;50.962;5.340;2023-03-01T08:14:05;10.93;;;7.70;;
40847;SDS011;26570;50.962;5.340;2023-03-01T08:16:50;15.53;;;7.67;;
40847;SDS011;26570;50.962;5.340;2023-03-01T08:19:57;14.10;;;7.43;;
40847;SDS011;26570;50.962;5.340;2023-03-01T08:22:42;11.40;;;7.20;;
40847;SDS011;26570;50.962;5.340;2023-03-01T08:25:27;11.80;;;7.37;;
40847;SDS011;26570;50.962;5.340;2023-03-01T08:28:12;11.40;;;6.80;;
40847;SDS011;26570;50.962;5.340;2023-03-01T08:30:57;16.03;;;7.20;;
40847;SDS011;26570;50.962;5.340;2023-03-01T08:33:42;8.57;;;7.57;;
40847;SDS011;26570;50.962;5.340;2023-03-01T08:36:32;10.90;;;7.23;;
40847;SDS011;26570;50.962;5.340;2023-03-01T08:39:42;11.63;;;7.43;;
40847;SDS011;26570;50.962;5.340;2023-03-01T08:42:27;17.77;;;8.20;;
40847;SDS011;26570;50.962;5.340;2023-03-01T08:45:12;13.60;;;7.70;;
40847;SDS011;26570;50.962;5.340;2023-03-01T08:48:24;11.53;;;7.27;;
40847;SDS011;26570;50.962;5.340;2023-03-01T08:51:13;13.10;;;7.00;;
40847;SDS011;26570;50.962;5.340;2023-03-01T08:54:01;10.00;;;7.77;;
40847;SDS011;26570;50.962;5.340;2023-03-01T08:56:47;13.93;;;9.17;;
40847;SDS011;26570;50.962;5.340;2023-03-01T08:59:33;11.63;;;7.73;;
40847;SDS011;26570;50.962;5.340;2023-03-01T09:02:21;11.43;;;8.00;;
40847;SDS011;26570;50.962;5.340;2023-03-01T09:05:07;10.33;;;8.20;;
40847;SDS011;26570;50.962;5.340;2023-03-01T09:07:52;12.20;;;8.23;;
40847;SDS011;26570;50.962;5.340;2023-03-01T09:10:38;12.97;;;8.97;;
40847;SDS011;26570;50.962;5.340;2023-03-01T09:13:23;15.77;;;8.13;;
40847;SDS011;26570;50.962;5.340;2023-03-01T09:16:10;16.47;;;7.90;;
40847;SDS011;26570;50.962;5.340;2023-03-01T09:18:56;12.33;;;8.60;;
40847;SDS011;26570;50.962;5.340;2023-03-01T09:21:41;12.43;;;8.90;;
40847;SDS011;26570;50.962;5.340;2023-03-01T09:24:36;13.80;;;8.33;;
40847;SDS011;26570;50.962;5.340;2023-03-01T09:27:21;14.27;;;8.57;;
40847;SDS011;26570;50.962;5.340;2023-03-01T09:30:08;11.00;;;8.00;;
40847;SDS011;26570;50.962;5.340;2023-03-01T09:32:57;12.17;;;7.50;;
40847;SDS011;26570;50.962;5.340;2023-03-01T09:35:42;16.03;;;8.00;;
40847;SDS011;26570;50.962;5.340;2023-03-01T09:38:31;12.60;;;7.90;;
40847;SDS011;26570;50.962;5.340;2023-03-01T09:44:31;12.90;;;8.93;;
40847;SDS011;26570;50.962;5.340;2023-03-01T09:47:30;10.70;;;8.47;;
40847;SDS011;26570;50.962;5.340;2023-03-01T09:50:18;10.40;;;7.37;;
40847;SDS011;26570;50.962;5.340;2023-03-01T09:53:38;12.10;;;9.50;;
40847;SDS011;26570;50.962;5.340;2023-03-01T10:05:41;11.27;;;7.97;;
40847;SDS011;26570;50.962;5.340;2023-03-01T10:09:18;12.60;;;9.23;;
40847;SDS011;26570;50.962;5.340;2023-03-01T10:12:04;12.73;;;9.43;;
40847;SDS011;26570;50.962;5.340;2023-03-01T10:15:17;16.30;;;9.80;;
40847;SDS011;26570;50.962;5.340;2023-03-01T10:18:12;16.40;;;9.90;;
40847;SDS011;26570;50.962;5.340;2023-03-01T10:21:27;15.93;;;10.03;;
40847;SDS011;26570;50.962;5.340;2023-03-01T10:24:16;16.33;;;10.53;;
40847;SDS011;26570;50.962;5.340;2023-03-01T10:27:07;14.80;;;10.20;;
40847;SDS011;26570;50.962;5.340;2023-03-01T10:33:44;15.87;;;10.10;;
40847;SDS011;26570;50.962;5.340;2023-03-01T10:36:32;15.73;;;10.73;;
40847;SDS011;26570;50.962;5.340;2023-03-01T10:39:19;16.70;;;10.30;;
40847;SDS011;26570;50.962;5.340;2023-03-01T10:42:18;16.30;;;10.53;;
40847;SDS011;26570;50.962;5.340;2023-03-01T10:48:21;13.40;;;10.07;;
40847;SDS011;26570;50.962;5.340;2023-03-01T10:51:12;16.63;;;10.60;;
40847;SDS011;26570;50.962;5.340;2023-03-01T10:54:04;18.67;;;10.53;;
40847;SDS011;26570;50.962;5.340;2023-03-01T10:57:04;13.73;;;10.10;;
40847;SDS011;26570;50.962;5.340;2023-03-01T11:00:10;17.23;;;11.30;;
40847;SDS011;26570;50.962;5.340;2023-03-01T11:03:12;19.80;;;10.60;;
40847;SDS011;26570;50.962;5.340;2023-03-01T11:06:03;17.17;;;11.37;;
40847;SDS011;26570;50.962;5.340;2023-03-01T11:12:24;17.53;;;10.07;;
40847;SDS011;26570;50.962;5.340;2023-03-01T11:15:36;13.63;;;10.83;;
40847;SDS011;26570;50.962;5.340;2023-03-01T11:18:21;16.50;;;10.80;;
40847;SDS011;26570;50.962;5.340;2023-03-01T11:21:13;15.77;;;10.77;;
40847;SDS011;26570;50.962;5.340;2023-03-01T11:24:12;14.90;;;10.47;;
40847;SDS011;26570;50.962;5.340;2023-03-01T11:27:03;17.33;;;11.67;;
40847;SDS011;26570;50.962;5.340;2023-03-01T11:29:55;12.37;;;8.60;;
40847;SDS011;26570;50.962;5.340;2023-03-01T11:32:45;16.07;;;9.20;;
40847;SDS011;26570;50.962;5.340;2023-03-01T11:35:42;15.07;;;8.53;;
40847;SDS011;26570;50.962;5.340;2023-03-01T11:38:38;14.40;;;10.03;;
40847;SDS011;26570;50.962;5.340;2023-03-01T11:41:25;16.30;;;10.07;;
40847;SDS011;26570;50.962;5.340;2023-03-01T11:44:16;13.47;;;9.03;;
40847;SDS011;26570;50.962;5.340;2023-03-01T11:47:19;16.23;;;10.03;;
40847;SDS011;26570;50.962;5.340;2023-03-01T12:04:06;13.00;;;8.77;;
40847;SDS011;26570;50.962;5.340;2023-03-01T12:07:30;16.77;;;10.03;;
40847;SDS011;26570;50.962;5.340;2023-03-01T12:10:28;10.97;;;8.03;;
40847;SDS011;26570;50.962;5.340;2023-03-01T12:26:14;13.73;;;9.10;;
40847;SDS011;26570;50.962;5.340;2023-03-01T12:29:24;14.07;;;9.17;;
40847;SDS011;26570;50.962;5.340;2023-03-01T12:49:04;18.23;;;9.40;;
40847;SDS011;26570;50.962;5.340;2023-03-01T12:52:00;13.93;;;8.90;;
40847;SDS011;26570;50.962;5.340;2023-03-01T12:54:54;18.73;;;8.73;;
40847;SDS011;26570;50.962;5.340;2023-03-01T13:01:21;14.30;;;8.50;;
40847;SDS011;26570;50.962;5.340;2023-03-01T13:04:18;12.43;;;7.97;;
40847;SDS011;26570;50.962;5.340;2023-03-01T13:07:23;17.70;;;8.60;;
40847;SDS011;26570;50.962;5.340;2023-03-01T13:10:32;14.07;;;8.43;;
40847;SDS011;26570;50.962;5.340;2023-03-01T13:13:24;12.63;;;8.43;;
40847;SDS011;26570;50.962;5.340;2023-03-01T13:16:21;10.77;;;7.93;;
40847;SDS011;26570;50.962;5.340;2023-03-01T13:19:32;10.30;;;7.90;;
40847;SDS011;26570;50.962;5.340;2023-03-01T13:22:27;12.33;;;8.43;;
40847;SDS011;26570;50.962;5.340;2023-03-01T13:25:19;12.33;;;8.37;;
40847;SDS011;26570;50.962;5.340;2023-03-01T13:37:28;11.37;;;8.13;;
40847;SDS011;26570;50.962;5.340;2023-03-01T13:43:27;12.47;;;7.80;;
40847;SDS011;26570;50.962;5.340;2023-03-01T13:46:39;11.97;;;8.57;;
40847;SDS011;26570;50.962;5.340;2023-03-01T13:49:26;12.27;;;8.93;;
40847;SDS011;26570;50.962;5.340;2023-03-01T13:52:30;14.10;;;9.27;;
40847;SDS011;26570;50.962;5.340;2023-03-01T13:55:45;14.20;;;7.43;;
40847;SDS011;26570;50.962;5.340;2023-03-01T13:58:52;16.30;;;9.00;;
40847;SDS011;26570;50.962;5.340;2023-03-01T14:02:00;11.97;;;7.87;;
40847;SDS011;26570;50.962;5.340;2023-03-01T14:04:47;10.80;;;6.67;;
40847;SDS011;26570;50.962;5.340;2023-03-01T14:07:50;17.60;;;7.67;;
40847;SDS011;26570;50.962;5.340;2023-03-01T14:10:48;12.43;;;7.33;;
40847;SDS011;26570;50.962;5.340;2023-03-01T14:14:03;11.10;;;7.70;;
40847;SDS011;26570;50.962;5.340;2023-03-01T14:19:48;15.00;;;8.00;;
40847;SDS011;26570;50.962;5.340;2023-03-01T14:22:51;11.70;;;8.20;;
40847;SDS011;26570;50.962;5.340;2023-03-01T14:25:52;13.63;;;8.57;;
40847;SDS011;26570;50.962;5.340;2023-03-01T14:28:38;9.50;;;7.60;;
40847;SDS011;26570;50.962;5.340;2023-03-01T14:34:23;13.13;;;7.33;;
40847;SDS011;26570;50.962;5.340;2023-03-01T14:37:14;10.77;;;7.43;;
40847;SDS011;26570;50.962;5.340;2023-03-01T14:40:40;11.50;;;7.13;;
40847;SDS011;26570;50.962;5.340;2023-03-01T14:43:27;11.47;;;6.57;;
40847;SDS011;26570;50.962;5.340;2023-03-01T14:46:17;10.10;;;7.73;;
40847;SDS011;26570;50.962;5.340;2023-03-01T14:52:00;12.10;;;6.57;;
40847;SDS011;26570;50.962;5.340;2023-03-01T14:54:51;12.50;;;7.00;;
40847;SDS011;26570;50.962;5.340;2023-03-01T14:57:49;11.53;;;7.10;;
40847;SDS011;26570;50.962;5.340;2023-03-01T15:00:49;13.17;;;7.13;;
40847;SDS011;26570;50.962;5.340;2023-03-01T15:03:44;9.37;;;6.40;;
40847;SDS011;26570;50.962;5.340;2023-03-01T15:06:36;14.87;;;6.33;;
40847;SDS011;26570;50.962;5.340;2023-03-01T15:09:24;14.53;;;6.40;;
40847;SDS011;26570;50.962;5.340;2023-03-01T15:12:32;11.23;;;6.77;;
40847;SDS011;26570;50.962;5.340;2023-03-01T15:18:36;13.03;;;7.17;;
40847;SDS011;26570;50.962;5.340;2023-03-01T15:21:48;12.70;;;5.83;;
40847;SDS011;26570;50.962;5.340;2023-03-01T15:25:05;9.57;;;5.10;;
40847;SDS011;26570;50.962;5.340;2023-03-01T15:27:58;7.67;;;4.97;;
40847;SDS011;26570;50.962;5.340;2023-03-01T15:31:24;8.57;;;4.70;;
40847;SDS011;26570;50.962;5.340;2023-03-01T15:34:29;12.13;;;5.10;;
40847;SDS011;26570;50.962;5.340;2023-03-01T15:40:31;6.97;;;4.77;;
40847;SDS011;26570;50.962;5.340;2023-03-01T15:43:37;6.93;;;4.10;;
40847;SDS011;26570;50.962;5.340;2023-03-01T15:46:33;9.27;;;4.17;;
40847;SDS011;26570;50.962;5.340;2023-03-01T15:52:23;7.47;;;4.70;;
40847;SDS011;26570;50.962;5.340;2023-03-01T15:55:17;12.30;;;4.40;;
40847;SDS011;26570;50.962;5.340;2023-03-01T16:01:18;9.47;;;4.53;;
40847;SDS011;26570;50.962;5.340;2023-03-01T16:04:03;7.43;;;4.27;;
40847;SDS011;26570;50.962;5.340;2023-03-01T16:06:49;8.17;;;5.00;;
40847;SDS011;26570;50.962;5.340;2023-03-01T16:09:39;6.57;;;4.13;;
40847;SDS011;26570;50.962;5.340;2023-03-01T16:12:24;6.70;;;4.67;;
40847;SDS011;26570;50.962;5.340;2023-03-01T16:15:14;9.20;;;4.23;;
40847;SDS011;26570;50.962;5.340;2023-03-01T16:18:03;6.00;;;4.40;;
40847;SDS011;26570;50.962;5.340;2023-03-01T16:20:55;8.73;;;4.43;;
40847;SDS011;26570;50.962;5.340;2023-03-01T16:23:44;7.47;;;3.87;;
40847;SDS011;26570;50.962;5.340;2023-03-01T16:26:31;8.30;;;4.50;;
40847;SDS011;26570;50.962;5.340;2023-03-01T16:29:16;5.97;;;4.00;;
40847;SDS011;26570;50.962;5.340;2023-03-01T16:32:01;6.77;;;4.13;;
40847;SDS011;26570;50.962;5.340;2023-03-01T16:34:46;6.20;;;3.47;;
40847;SDS011;26570;50.962;5.340;2023-03-01T16:37:34;6.87;;;3.87;;
40847;SDS011;26570;50.962;5.340;2023-03-01T16:40:43;9.43;;;4.60;;
40847;SDS011;26570;50.962;5.340;2023-03-01T16:43:32;9.50;;;3.73;;
40847;SDS011;26570;50.962;5.340;2023-03-01T16:46:22;8.33;;;3.97;;
40847;SDS011;26570;50.962;5.340;2023-03-01T16:49:37;7.77;;;4.13;;
40847;SDS011;26570;50.962;5.340;2023-03-01T16:52:22;8.47;;;3.93;;
40847;SDS011;26570;50.962;5.340;2023-03-01T16:55:07;10.03;;;4.03;;
40847;SDS011;26570;50.962;5.340;2023-03-01T16:57:54;6.83;;;4.07;;
40847;SDS011;26570;50.962;5.340;2023-03-01T17:00:39;9.10;;;4.33;;
40847;SDS011;26570;50.962;5.340;2023-03-01T17:03:25;6.03;;;4.40;;
40847;SDS011;26570;50.962;5.340;2023-03-01T17:06:12;8.00;;;4.43;;
40847;SDS011;26570;50.962;5.340;2023-03-01T17:09:04;7.67;;;4.83;;
40847;SDS011;26570;50.962;5.340;2023-03-01T17:11:51;12.37;;;5.43;;
40847;SDS011;26570;50.962;5.340;2023-03-01T17:14:36;8.67;;;4.53;;
40847;SDS011;26570;50.962;5.340;2023-03-01T17:17:22;9.53;;;4.57;;
40847;SDS011;26570;50.962;5.340;2023-03-01T17:20:08;9.33;;;4.90;;
40847;SDS011;26570;50.962;5.340;2023-03-01T17:23:19;10.13;;;6.07;;
40847;SDS011;26570;50.962;5.340;2023-03-01T17:26:04;9.27;;;5.03;;
40847;SDS011;26570;50.962;5.340;2023-03-01T17:28:49;9.63;;;5.30;;
40847;SDS011;26570;50.962;5.340;2023-03-01T17:31:34;12.00;;;5.20;;
40847;SDS011;26570;50.962;5.340;2023-03-01T17:34:20;9.63;;;5.50;;
40847;SDS011;26570;50.962;5.340;2023-03-01T17:37:06;11.60;;;5.53;;
40847;SDS011;26570;50.962;5.340;2023-03-01T17:39:50;12.73;;;5.13;;
40847;SDS011;26570;50.962;5.340;2023-03-01T17:42:36;8.33;;;5.87;;
40847;SDS011;26570;50.962;5.340;2023-03-01T17:45:21;10.23;;;5.03;;
40847;SDS011;26570;50.962;5.340;2023-03-01T17:48:06;12.70;;;5.80;;
40847;SDS011;26570;50.962;5.340;2023-03-01T17:50:52;11.27;;;6.00;;
40847;SDS011;26570;50.962;5.340;2023-03-01T17:53:37;13.40;;;6.90;;
40847;SDS011;26570;50.962;5.340;2023-03-01T17:56:22;13.20;;;6.97;;
40847;SDS011;26570;50.962;5.340;2023-03-01T17:59:08;10.60;;;6.73;;
40847;SDS011;26570;50.962;5.340;2023-03-01T18:01:53;11.53;;;7.17;;
40847;SDS011;26570;50.962;5.340;2023-03-01T18:04:38;15.07;;;6.67;;
40847;SDS011;26570;50.962;5.340;2023-03-01T18:07:25;13.10;;;6.87;;
40847;SDS011;26570;50.962;5.340;2023-03-01T18:13:04;14.83;;;6.70;;
40847;SDS011;26570;50.962;5.340;2023-03-01T18:16:15;15.17;;;7.10;;
40847;SDS011;26570;50.962;5.340;2023-03-01T18:19:04;12.80;;;7.90;;
40847;SDS011;26570;50.962;5.340;2023-03-01T18:21:51;16.37;;;8.97;;
40847;SDS011;26570;50.962;5.340;2023-03-01T18:24:40;19.00;;;8.73;;
40847;SDS011;26570;50.962;5.340;2023-03-01T18:27:25;13.60;;;8.70;;
40847;SDS011;26570;50.962;5.340;2023-03-01T18:30:16;16.87;;;9.80;;
40847;SDS011;26570;50.962;5.340;2023-03-01T18:33:02;18.37;;;9.03;;
40847;SDS011;26570;50.962;5.340;2023-03-01T18:35:46;14.93;;;8.97;;
40847;SDS011;26570;50.962;5.340;2023-03-01T18:38:41;25.73;;;10.67;;
40847;SDS011;26570;50.962;5.340;2023-03-01T18:41:29;17.90;;;10.70;;
40847;SDS011;26570;50.962;5.340;2023-03-01T18:44:18;22.20;;;10.37;;
40847;SDS011;26570;50.962;5.340;2023-03-01T18:47:03;18.90;;;10.10;;
40847;SDS011;26570;50.962;5.340;2023-03-01T18:50:18;18.75;;;10.23;;
40847;SDS011;26570;50.962;5.340;2023-03-01T18:53:03;22.27;;;11.23;;
40847;SDS011;26570;50.962;5.340;2023-03-01T18:55:48;22.70;;;10.97;;
40847;SDS011;26570;50.962;5.340;2023-03-01T18:58:56;17.27;;;9.93;;
40847;SDS011;26570;50.962;5.340;2023-03-01T19:01:43;18.63;;;10.13;;
40847;SDS011;26570;50.962;5.340;2023-03-01T19:04:28;20.17;;;10.97;;
40847;SDS011;26570;50.962;5.340;2023-03-01T19:07:13;20.97;;;11.30;;
40847;SDS011;26570;50.962;5.340;2023-03-01T19:09:59;33.50;;;16.30;;
40847;SDS011;26570;50.962;5.340;2023-03-01T19:12:49;26.60;;;13.30;;
40847;SDS011;26570;50.962;5.340;2023-03-01T19:16:40;35.03;;;16.10;;
40847;SDS011;26570;50.962;5.340;2023-03-01T19:19:10;22.23;;;11.60;;
40847;SDS011;26570;50.962;5.340;2023-03-01T19:22:23;20.67;;;11.10;;
40847;SDS011;26570;50.962;5.340;2023-03-01T19:25:13;17.83;;;10.77;;
40847;SDS011;26570;50.962;5.340;2023-03-01T19:28:21;20.23;;;10.37;;
40847;SDS011;26570;50.962;5.340;2023-03-01T19:31:07;23.87;;;11.87;;
40847;SDS011;26570;50.962;5.340;2023-03-01T19:33:56;24.87;;;10.57;;
40847;SDS011;26570;50.962;5.340;2023-03-01T19:36:45;22.33;;;11.63;;
40847;SDS011;26570;50.962;5.340;2023-03-01T19:39:57;20.97;;;10.80;;
40847;SDS011;26570;50.962;5.340;2023-03-01T19:42:48;22.00;;;11.03;;
40847;SDS011;26570;50.962;5.340;2023-03-01T19:45:55;20.47;;;11.90;;
40847;SDS011;26570;50.962;5.340;2023-03-01T19:48:40;19.47;;;10.73;;
40847;SDS011;26570;50.962;5.340;2023-03-01T19:51:28;23.07;;;12.43;;